sensor_id;sensor_type;location;lat;lon;timestamp;pressure;altitude;pressure_sealevel;temperature;humidity
72961;BME280;61141;46.204;19.774;2023-04-26T00:01:02;99702.41;;;7.62;90.19
72961;BME280;61141;46.204;19.774;2023-04-26T00:04:08;99698.34;;;7.76;90.54
72961;BME280;61141;46.204;19.774;2023-04-26T00:07:11;99695.50;;;7.68;90.48
72961;BME280;61141;46.204;19.774;2023-04-26T00:10:15;99700.16;;;7.68;90.50
72961;BME280;61141;46.204;19.774;2023-04-26T00:13:18;99695.09;;;7.66;90.14
72961;BME280;61141;46.204;19.774;2023-04-26T00:16:21;99701.81;;;7.73;90.70
72961;BME280;61141;46.204;19.774;2023-04-26T00:19:24;99691.88;;;7.61;91.41
72961;BME280;61141;46.204;19.774;2023-04-26T00:22:27;99698.59;;;7.67;90.45
72961;BME280;61141;46.204;19.774;2023-04-26T00:25:30;99708.16;;;7.80;90.62
72961;BME280;61141;46.204;19.774;2023-04-26T00:28:33;99708.22;;;7.84;90.74
72961;BME280;61141;46.204;19.774;2023-04-26T00:31:36;99708.62;;;7.86;90.92
72961;BME280;61141;46.204;19.774;2023-04-26T00:34:39;99710.81;;;7.77;90.77
72961;BME280;61141;46.204;19.774;2023-04-26T00:37:42;99707.94;;;7.66;90.73
72961;BME280;61141;46.204;19.774;2023-04-26T00:40:45;99711.97;;;7.76;91.11
72961;BME280;61141;46.204;19.774;2023-04-26T00:43:48;99707.44;;;7.60;91.83
72961;BME280;61141;46.204;19.774;2023-04-26T00:46:52;99717.44;;;7.76;91.38
72961;BME280;61141;46.204;19.774;2023-04-26T00:49:55;99704.63;;;7.53;91.49
72961;BME280;61141;46.204;19.774;2023-04-26T00:52:58;99701.56;;;7.58;91.82
72961;BME280;61141;46.204;19.774;2023-04-26T00:56:02;99705.19;;;7.66;92.16
72961;BME280;61141;46.204;19.774;2023-04-26T00:59:06;99710.16;;;7.60;91.77
72961;BME280;61141;46.204;19.774;2023-04-26T01:02:08;99707.28;;;7.50;92.02
72961;BME280;61141;46.204;19.774;2023-04-26T01:05:12;99719.06;;;7.57;92.02
72961;BME280;61141;46.204;19.774;2023-04-26T01:08:14;99719.50;;;7.59;92.15
72961;BME280;61141;46.204;19.774;2023-04-26T01:11:22;99710.16;;;7.60;92.30
72961;BME280;61141;46.204;19.774;2023-04-26T01:14:26;99721.88;;;7.61;92.33
72961;BME280;61141;46.204;19.774;2023-04-26T01:17:29;99716.47;;;7.64;92.45
72961;BME280;61141;46.204;19.774;2023-04-26T01:20:32;99720.28;;;7.60;93.22
72961;BME280;61141;46.204;19.774;2023-04-26T01:23:37;99719.94;;;7.61;92.70
72961;BME280;61141;46.204;19.774;2023-04-26T01:26:40;99718.81;;;7.66;92.95
72961;BME280;61141;46.204;19.774;2023-04-26T01:29:49;99725.22;;;7.51;92.93
72961;BME280;61141;46.204;19.774;2023-04-26T01:32:52;99723.56;;;7.69;93.43
72961;BME280;61141;46.204;19.774;2023-04-26T01:35:55;99738.22;;;7.84;93.15
72961;BME280;61141;46.204;19.774;2023-04-26T01:38:58;99736.13;;;7.77;92.72
72961;BME280;61141;46.204;19.774;2023-04-26T01:42:02;99739.34;;;7.83;93.22
72961;BME280;61141;46.204;19.774;2023-04-26T01:45:06;99735.16;;;7.89;93.27
72961;BME280;61141;46.204;19.774;2023-04-26T01:48:24;99743.25;;;8.08;92.92
72961;BME280;61141;46.204;19.774;2023-04-26T01:51:27;99749.59;;;7.89;92.78
72961;BME280;61141;46.204;19.774;2023-04-26T01:54:30;99749.03;;;8.03;93.23
72961;BME280;61141;46.204;19.774;2023-04-26T01:57:34;99755.75;;;8.09;93.45
72961;BME280;61141;46.204;19.774;2023-04-26T02:00:37;99752.38;;;8.19;92.97
72961;BME280;61141;46.204;19.774;2023-04-26T02:03:40;99755.31;;;8.07;93.35
72961;BME280;61141;46.204;19.774;2023-04-26T02:06:43;99754.50;;;8.06;93.70
72961;BME280;61141;46.204;19.774;2023-04-26T02:09:46;99762.97;;;8.24;93.51
72961;BME280;61141;46.204;19.774;2023-04-26T02:12:49;99768.06;;;8.25;93.62
72961;BME280;61141;46.204;19.774;2023-04-26T02:15:52;99765.06;;;8.08;93.83
72961;BME280;61141;46.204;19.774;2023-04-26T02:18:55;99758.56;;;8.16;94.27
72961;BME280;61141;46.204;19.774;2023-04-26T02:21:58;99758.06;;;8.33;94.04
72961;BME280;61141;46.204;19.774;2023-04-26T02:25:01;99761.81;;;8.25;93.90
72961;BME280;61141;46.204;19.774;2023-04-26T02:28:05;99762.28;;;8.27;93.80
72961;BME280;61141;46.204;19.774;2023-04-26T02:31:08;99758.91;;;8.37;93.49
72961;BME280;61141;46.204;19.774;2023-04-26T02:34:11;99770.97;;;8.36;93.46
72961;BME280;61141;46.204;19.774;2023-04-26T02:37:14;99758.47;;;8.35;93.62
72961;BME280;61141;46.204;19.774;2023-04-26T02:40:18;99769.19;;;8.47;93.66
72961;BME280;61141;46.204;19.774;2023-04-26T02:43:21;99774.22;;;8.45;93.71
72961;BME280;61141;46.204;19.774;2023-04-26T02:46:24;99754.34;;;8.45;93.96
72961;BME280;61141;46.204;19.774;2023-04-26T02:49:27;99762.13;;;8.72;93.49
72961;BME280;61141;46.204;19.774;2023-04-26T02:52:30;99766.88;;;8.79;94.00
72961;BME280;61141;46.204;19.774;2023-04-26T02:55:32;99770.16;;;8.62;93.34
72961;BME280;61141;46.204;19.774;2023-04-26T02:58:35;99777.38;;;8.47;94.01
72961;BME280;61141;46.204;19.774;2023-04-26T03:01:38;99781.88;;;8.62;93.68
72961;BME280;61141;46.204;19.774;2023-04-26T03:04:41;99772.87;;;8.62;93.72
72961;BME280;61141;46.204;19.774;2023-04-26T03:07:45;99782.66;;;8.63;93.39
72961;BME280;61141;46.204;19.774;2023-04-26T03:10:48;99765.47;;;8.62;93.12
72961;BME280;61141;46.204;19.774;2023-04-26T03:13:51;99784.91;;;8.57;93.46
72961;BME280;61141;46.204;19.774;2023-04-26T03:16:55;99794.13;;;8.75;93.49
72961;BME280;61141;46.204;19.774;2023-04-26T03:19:59;99788.72;;;8.79;93.25
72961;BME280;61141;46.204;19.774;2023-04-26T03:23:04;99806.41;;;8.89;93.16
72961;BME280;61141;46.204;19.774;2023-04-26T03:26:07;99805.84;;;8.76;93.35
72961;BME280;61141;46.204;19.774;2023-04-26T03:29:11;99808.56;;;8.76;92.38
72961;BME280;61141;46.204;19.774;2023-04-26T03:32:14;99824.81;;;8.65;92.75
72961;BME280;61141;46.204;19.774;2023-04-26T03:35:17;99816.72;;;8.72;92.56
72961;BME280;61141;46.204;19.774;2023-04-26T03:38:20;99827.41;;;8.84;92.20
72961;BME280;61141;46.204;19.774;2023-04-26T03:41:24;99830.78;;;8.74;92.31
72961;BME280;61141;46.204;19.774;2023-04-26T03:44:27;99838.25;;;8.77;92.12
72961;BME280;61141;46.204;19.774;2023-04-26T03:47:32;99843.66;;;8.74;92.33
72961;BME280;61141;46.204;19.774;2023-04-26T03:50:35;99834.97;;;8.95;92.04
72961;BME280;61141;46.204;19.774;2023-04-26T03:53:39;99849.25;;;8.84;91.91
72961;BME280;61141;46.204;19.774;2023-04-26T03:56:43;99846.00;;;8.75;91.78
72961;BME280;61141;46.204;19.774;2023-04-26T03:59:46;99850.47;;;8.87;91.32
72961;BME280;61141;46.204;19.774;2023-04-26T04:02:53;99853.16;;;8.83;92.01
72961;BME280;61141;46.204;19.774;2023-04-26T04:05:56;99857.38;;;9.07;91.17
72961;BME280;61141;46.204;19.774;2023-04-26T04:08:59;99868.91;;;8.94;90.60
72961;BME280;61141;46.204;19.774;2023-04-26T04:12:02;99876.50;;;8.81;90.74
72961;BME280;61141;46.204;19.774;2023-04-26T04:15:06;99869.84;;;8.78;91.37
72961;BME280;61141;46.204;19.774;2023-04-26T04:18:11;99876.50;;;8.81;90.41
72961;BME280;61141;46.204;19.774;2023-04-26T04:21:15;99878.75;;;9.02;89.49
72961;BME280;61141;46.204;19.774;2023-04-26T04:24:18;99878.97;;;8.90;89.70
72961;BME280;61141;46.204;19.774;2023-04-26T04:27:21;99892.41;;;9.02;89.17
72961;BME280;61141;46.204;19.774;2023-04-26T04:30:24;99897.22;;;9.12;88.29
72961;BME280;61141;46.204;19.774;2023-04-26T04:33:28;99896.75;;;9.03;88.70
72961;BME280;61141;46.204;19.774;2023-04-26T04:36:31;99910.41;;;9.03;88.44
72961;BME280;61141;46.204;19.774;2023-04-26T04:39:35;99908.72;;;8.95;88.97
72961;BME280;61141;46.204;19.774;2023-04-26T04:42:38;99915.94;;;9.10;88.10
72961;BME280;61141;46.204;19.774;2023-04-26T04:45:42;99922.44;;;9.28;87.22
72961;BME280;61141;46.204;19.774;2023-04-26T04:48:45;99937.00;;;9.35;87.00
72961;BME280;61141;46.204;19.774;2023-04-26T04:51:47;99933.34;;;9.28;86.25
72961;BME280;61141;46.204;19.774;2023-04-26T04:54:51;99940.34;;;9.25;86.57
72961;BME280;61141;46.204;19.774;2023-04-26T04:57:53;99945.22;;;9.39;85.70
72961;BME280;61141;46.204;19.774;2023-04-26T05:00:57;99937.16;;;9.20;86.15
72961;BME280;61141;46.204;19.774;2023-04-26T05:04:04;99937.41;;;9.37;86.44
72961;BME280;61141;46.204;19.774;2023-04-26T05:07:07;99952.38;;;9.47;85.59
72961;BME280;61141;46.204;19.774;2023-04-26T05:10:13;99939.41;;;9.40;84.67
72961;BME280;61141;46.204;19.774;2023-04-26T05:13:16;99963.13;;;9.33;85.86
72961;BME280;61141;46.204;19.774;2023-04-26T05:16:19;99967.06;;;9.35;84.11
72961;BME280;61141;46.204;19.774;2023-04-26T05:19:22;99968.94;;;9.61;84.09
72961;BME280;61141;46.204;19.774;2023-04-26T05:22:25;99977.19;;;9.65;82.65
72961;BME280;61141;46.204;19.774;2023-04-26T05:25:29;99970.19;;;10.00;82.74
72961;BME280;61141;46.204;19.774;2023-04-26T05:28:32;99972.25;;;9.74;82.51
72961;BME280;61141;46.204;19.774;2023-04-26T05:31:36;99972.59;;;10.05;81.65
72961;BME280;61141;46.204;19.774;2023-04-26T05:34:40;99981.72;;;10.17;80.13
72961;BME280;61141;46.204;19.774;2023-04-26T05:37:43;99981.25;;;10.08;79.82
72961;BME280;61141;46.204;19.774;2023-04-26T05:40:47;99981.94;;;10.01;79.76
72961;BME280;61141;46.204;19.774;2023-04-26T05:43:50;99995.84;;;9.85;80.37
72961;BME280;61141;46.204;19.774;2023-04-26T05:46:54;99996.16;;;10.14;80.28
72961;BME280;61141;46.204;19.774;2023-04-26T05:49:59;99992.72;;;9.87;79.55
72961;BME280;61141;46.204;19.774;2023-04-26T05:53:03;100012.31;;;9.92;79.40
72961;BME280;61141;46.204;19.774;2023-04-26T05:56:06;100004.03;;;10.15;78.78
72961;BME280;61141;46.204;19.774;2023-04-26T05:59:09;99997.06;;;10.25;78.28
72961;BME280;61141;46.204;19.774;2023-04-26T06:02:14;100002.47;;;10.18;77.97
72961;BME280;61141;46.204;19.774;2023-04-26T06:05:17;100005.88;;;10.41;78.21
72961;BME280;61141;46.204;19.774;2023-04-26T06:08:21;100007.16;;;10.17;77.58
72961;BME280;61141;46.204;19.774;2023-04-26T06:11:24;100010.09;;;10.38;76.24
72961;BME280;61141;46.204;19.774;2023-04-26T06:14:28;100014.53;;;10.46;75.85
72961;BME280;61141;46.204;19.774;2023-04-26T06:17:33;100013.91;;;10.67;75.96
72961;BME280;61141;46.204;19.774;2023-04-26T06:20:36;100018.78;;;10.44;75.41
72961;BME280;61141;46.204;19.774;2023-04-26T06:23:40;100025.81;;;10.82;73.98
72961;BME280;61141;46.204;19.774;2023-04-26T06:26:43;100018.47;;;10.93;73.91
72961;BME280;61141;46.204;19.774;2023-04-26T06:29:46;100032.38;;;11.25;72.47
72961;BME280;61141;46.204;19.774;2023-04-26T06:33:12;100033.91;;;11.15;71.09
72961;BME280;61141;46.204;19.774;2023-04-26T06:36:15;100030.00;;;11.19;70.99
72961;BME280;61141;46.204;19.774;2023-04-26T06:39:18;100046.97;;;11.36;70.44
72961;BME280;61141;46.204;19.774;2023-04-26T06:42:21;100047.94;;;11.64;69.58
72961;BME280;61141;46.204;19.774;2023-04-26T06:45:24;100040.94;;;11.12;69.43
72961;BME280;61141;46.204;19.774;2023-04-26T06:48:28;100046.63;;;11.44;68.67
72961;BME280;61141;46.204;19.774;2023-04-26T06:51:31;100037.31;;;11.56;66.95
72961;BME280;61141;46.204;19.774;2023-04-26T06:54:34;100050.66;;;11.61;67.61
72961;BME280;61141;46.204;19.774;2023-04-26T06:57:44;100054.88;;;12.23;66.93
72961;BME280;61141;46.204;19.774;2023-04-26T07:00:47;100048.16;;;12.03;65.27
72961;BME280;61141;46.204;19.774;2023-04-26T07:03:50;100053.22;;;11.94;62.90
72961;BME280;61141;46.204;19.774;2023-04-26T07:06:54;100051.38;;;12.30;64.52
72961;BME280;61141;46.204;19.774;2023-04-26T07:09:57;100051.78;;;12.32;64.11
72961;BME280;61141;46.204;19.774;2023-04-26T07:13:00;100058.94;;;12.68;63.29
72961;BME280;61141;46.204;19.774;2023-04-26T07:16:03;100041.63;;;12.40;58.95
72961;BME280;61141;46.204;19.774;2023-04-26T07:19:07;100047.47;;;12.27;57.77
72961;BME280;61141;46.204;19.774;2023-04-26T07:22:10;100070.91;;;12.07;56.82
72961;BME280;61141;46.204;19.774;2023-04-26T07:25:13;100067.06;;;12.22;57.79
72961;BME280;61141;46.204;19.774;2023-04-26T07:28:16;100071.53;;;12.80;57.04
72961;BME280;61141;46.204;19.774;2023-04-26T07:31:19;100077.37;;;12.61;57.62
72961;BME280;61141;46.204;19.774;2023-04-26T07:34:22;100066.84;;;12.94;54.92
72961;BME280;61141;46.204;19.774;2023-04-26T07:37:25;100069.19;;;12.96;55.09
72961;BME280;61141;46.204;19.774;2023-04-26T07:40:28;100069.94;;;12.72;54.35
72961;BME280;61141;46.204;19.774;2023-04-26T07:43:32;100059.72;;;12.69;53.23
72961;BME280;61141;46.204;19.774;2023-04-26T07:46:35;100079.41;;;12.88;54.01
72961;BME280;61141;46.204;19.774;2023-04-26T07:49:39;100073.06;;;12.74;54.78
72961;BME280;61141;46.204;19.774;2023-04-26T07:52:41;100083.38;;;13.33;54.45
72961;BME280;61141;46.204;19.774;2023-04-26T07:55:45;100079.41;;;13.06;54.46
72961;BME280;61141;46.204;19.774;2023-04-26T07:58:47;100097.50;;;13.21;52.23
72961;BME280;61141;46.204;19.774;2023-04-26T08:01:51;100092.00;;;13.18;52.02
72961;BME280;61141;46.204;19.774;2023-04-26T08:04:54;100094.75;;;13.18;52.58
72961;BME280;61141;46.204;19.774;2023-04-26T08:07:59;100104.59;;;13.22;51.84
72961;BME280;61141;46.204;19.774;2023-04-26T08:11:08;100093.56;;;13.15;50.99
72961;BME280;61141;46.204;19.774;2023-04-26T08:14:13;100098.25;;;12.86;52.52
72961;BME280;61141;46.204;19.774;2023-04-26T08:17:16;100090.03;;;13.32;51.06
72961;BME280;61141;46.204;19.774;2023-04-26T08:20:19;100091.97;;;13.04;49.28
72961;BME280;61141;46.204;19.774;2023-04-26T08:23:22;100094.00;;;13.28;48.58
72961;BME280;61141;46.204;19.774;2023-04-26T08:26:25;100085.72;;;13.38;45.56
72961;BME280;61141;46.204;19.774;2023-04-26T08:29:28;100089.25;;;13.21;46.35
72961;BME280;61141;46.204;19.774;2023-04-26T08:32:31;100077.03;;;13.54;44.68
72961;BME280;61141;46.204;19.774;2023-04-26T08:35:37;100083.28;;;13.83;43.38
72961;BME280;61141;46.204;19.774;2023-04-26T08:38:40;100076.50;;;14.12;41.55
72961;BME280;61141;46.204;19.774;2023-04-26T08:41:53;100079.19;;;14.30;38.13
72961;BME280;61141;46.204;19.774;2023-04-26T08:44:59;100092.47;;;14.56;38.48
72961;BME280;61141;46.204;19.774;2023-04-26T08:48:10;100107.59;;;14.16;36.41
72961;BME280;61141;46.204;19.774;2023-04-26T08:51:17;100098.88;;;14.35;38.30
72961;BME280;61141;46.204;19.774;2023-04-26T08:54:21;100097.78;;;14.91;37.05
72961;BME280;61141;46.204;19.774;2023-04-26T08:57:24;100109.78;;;14.63;37.17
72961;BME280;61141;46.204;19.774;2023-04-26T09:00:28;100097.97;;;14.56;39.73
72961;BME280;61141;46.204;19.774;2023-04-26T09:03:31;100085.47;;;14.37;37.03
72961;BME280;61141;46.204;19.774;2023-04-26T09:06:35;100099.13;;;14.62;36.61
72961;BME280;61141;46.204;19.774;2023-04-26T09:09:41;100107.75;;;14.67;36.70
72961;BME280;61141;46.204;19.774;2023-04-26T09:12:50;100098.16;;;14.13;36.71
72961;BME280;61141;46.204;19.774;2023-04-26T09:15:53;100095.41;;;14.03;36.41
72961;BME280;61141;46.204;19.774;2023-04-26T09:18:57;100110.41;;;13.84;35.12
72961;BME280;61141;46.204;19.774;2023-04-26T09:22:00;100098.56;;;14.05;35.85
72961;BME280;61141;46.204;19.774;2023-04-26T09:25:04;100102.03;;;14.34;35.31
72961;BME280;61141;46.204;19.774;2023-04-26T09:28:21;100114.22;;;14.29;35.47
72961;BME280;61141;46.204;19.774;2023-04-26T09:31:39;100114.69;;;14.10;37.04
72961;BME280;61141;46.204;19.774;2023-04-26T09:34:43;100125.22;;;14.43;37.17
72961;BME280;61141;46.204;19.774;2023-04-26T09:38:02;100122.47;;;14.40;37.54
72961;BME280;61141;46.204;19.774;2023-04-26T09:41:13;100121.69;;;14.25;38.99
72961;BME280;61141;46.204;19.774;2023-04-26T09:44:23;100118.53;;;15.10;39.15
72961;BME280;61141;46.204;19.774;2023-04-26T09:47:26;100145.25;;;14.54;37.38
72961;BME280;61141;46.204;19.774;2023-04-26T09:50:30;100139.91;;;14.92;37.82
72961;BME280;61141;46.204;19.774;2023-04-26T09:53:46;100129.50;;;14.51;38.49
72961;BME280;61141;46.204;19.774;2023-04-26T09:56:59;100120.75;;;14.74;38.23
72961;BME280;61141;46.204;19.774;2023-04-26T10:00:06;100126.84;;;15.03;39.51
72961;BME280;61141;46.204;19.774;2023-04-26T10:03:17;100124.44;;;15.12;39.14
72961;BME280;61141;46.204;19.774;2023-04-26T10:06:20;100127.72;;;14.93;40.51
72961;BME280;61141;46.204;19.774;2023-04-26T10:09:23;100124.87;;;15.03;39.36
72961;BME280;61141;46.204;19.774;2023-04-26T10:12:27;100111.75;;;14.56;39.04
72961;BME280;61141;46.204;19.774;2023-04-26T10:15:30;100118.28;;;14.00;38.25
72961;BME280;61141;46.204;19.774;2023-04-26T10:18:34;100132.78;;;14.07;39.30
72961;BME280;61141;46.204;19.774;2023-04-26T10:21:37;100108.91;;;14.74;39.46
72961;BME280;61141;46.204;19.774;2023-04-26T10:24:43;100120.25;;;13.85;38.00
72961;BME280;61141;46.204;19.774;2023-04-26T10:27:47;100108.47;;;13.67;38.83
72961;BME280;61141;46.204;19.774;2023-04-26T10:30:57;100113.97;;;13.88;39.88
72961;BME280;61141;46.204;19.774;2023-04-26T10:34:17;100107.69;;;14.78;39.13
72961;BME280;61141;46.204;19.774;2023-04-26T10:37:21;100111.75;;;15.21;37.52
72961;BME280;61141;46.204;19.774;2023-04-26T10:40:26;100123.25;;;15.64;38.82
72961;BME280;61141;46.204;19.774;2023-04-26T10:43:29;100128.44;;;15.04;38.75
72961;BME280;61141;46.204;19.774;2023-04-26T10:46:35;100132.28;;;14.48;37.70
72961;BME280;61141;46.204;19.774;2023-04-26T10:49:45;100133.06;;;14.48;37.55
72961;BME280;61141;46.204;19.774;2023-04-26T10:53:11;100123.13;;;14.68;38.54
72961;BME280;61141;46.204;19.774;2023-04-26T10:59:30;100125.59;;;14.52;39.26
72961;BME280;61141;46.204;19.774;2023-04-26T11:05:54;100132.47;;;15.88;37.98
72961;BME280;61141;46.204;19.774;2023-04-26T11:08:58;100118.56;;;15.58;37.10
72961;BME280;61141;46.204;19.774;2023-04-26T11:12:06;100139.28;;;15.32;35.92
72961;BME280;61141;46.204;19.774;2023-04-26T11:15:11;100137.06;;;15.09;36.18
72961;BME280;61141;46.204;19.774;2023-04-26T11:18:17;100131.44;;;15.23;36.34
72961;BME280;61141;46.204;19.774;2023-04-26T11:21:21;100120.19;;;14.97;36.24
72961;BME280;61141;46.204;19.774;2023-04-26T11:24:25;100095.84;;;15.36;35.69
72961;BME280;61141;46.204;19.774;2023-04-26T11:27:28;100112.66;;;15.56;35.22
72961;BME280;61141;46.204;19.774;2023-04-26T11:30:31;100111.84;;;15.07;35.56
72961;BME280;61141;46.204;19.774;2023-04-26T11:33:34;100117.59;;;15.78;34.83
72961;BME280;61141;46.204;19.774;2023-04-26T11:36:38;100123.62;;;15.11;34.68
72961;BME280;61141;46.204;19.774;2023-04-26T11:39:44;100121.19;;;15.24;35.56
72961;BME280;61141;46.204;19.774;2023-04-26T11:42:47;100113.75;;;15.14;36.58
72961;BME280;61141;46.204;19.774;2023-04-26T11:45:50;100099.28;;;15.92;35.38
72961;BME280;61141;46.204;19.774;2023-04-26T11:48:53;100115.13;;;15.88;34.81
72961;BME280;61141;46.204;19.774;2023-04-26T11:51:57;100122.63;;;14.88;34.95
72961;BME280;61141;46.204;19.774;2023-04-26T11:55:04;100116.91;;;15.67;36.94
72961;BME280;61141;46.204;19.774;2023-04-26T11:58:13;100115.56;;;15.38;36.29
72961;BME280;61141;46.204;19.774;2023-04-26T12:01:24;100121.47;;;14.82;35.18
72961;BME280;61141;46.204;19.774;2023-04-26T12:04:30;100122.41;;;14.50;36.66
72961;BME280;61141;46.204;19.774;2023-04-26T12:07:36;100114.50;;;14.63;36.19
72961;BME280;61141;46.204;19.774;2023-04-26T12:10:39;100111.44;;;15.09;35.70
72961;BME280;61141;46.204;19.774;2023-04-26T12:13:42;100090.19;;;15.02;35.23
72961;BME280;61141;46.204;19.774;2023-04-26T12:16:45;100104.66;;;16.06;32.67
72961;BME280;61141;46.204;19.774;2023-04-26T12:19:48;100112.84;;;15.31;33.68
72961;BME280;61141;46.204;19.774;2023-04-26T12:23:13;100109.38;;;15.23;33.70
72961;BME280;61141;46.204;19.774;2023-04-26T12:26:16;100122.69;;;16.17;34.63
72961;BME280;61141;46.204;19.774;2023-04-26T12:29:19;100110.47;;;15.77;33.85
72961;BME280;61141;46.204;19.774;2023-04-26T12:32:22;100075.72;;;15.80;35.56
72961;BME280;61141;46.204;19.774;2023-04-26T12:35:25;100112.09;;;15.75;34.16
72961;BME280;61141;46.204;19.774;2023-04-26T12:38:28;100124.19;;;15.44;34.69
72961;BME280;61141;46.204;19.774;2023-04-26T12:41:31;100105.56;;;15.96;33.45
72961;BME280;61141;46.204;19.774;2023-04-26T12:44:35;100117.72;;;15.64;33.40
72961;BME280;61141;46.204;19.774;2023-04-26T12:47:38;100117.75;;;15.61;34.29
72961;BME280;61141;46.204;19.774;2023-04-26T12:50:41;100102.78;;;16.63;33.39
72961;BME280;61141;46.204;19.774;2023-04-26T12:53:44;100096.38;;;16.70;32.31
72961;BME280;61141;46.204;19.774;2023-04-26T12:56:47;100120.84;;;17.25;31.26
72961;BME280;61141;46.204;19.774;2023-04-26T12:59:51;100113.09;;;16.89;31.40
72961;BME280;61141;46.204;19.774;2023-04-26T13:02:53;100098.63;;;15.80;32.73
72961;BME280;61141;46.204;19.774;2023-04-26T13:05:57;100098.34;;;16.05;32.32
72961;BME280;61141;46.204;19.774;2023-04-26T13:09:00;100112.66;;;16.30;32.51
72961;BME280;61141;46.204;19.774;2023-04-26T13:12:04;100119.00;;;16.91;31.84
72961;BME280;61141;46.204;19.774;2023-04-26T13:15:08;100133.66;;;15.43;32.12
72961;BME280;61141;46.204;19.774;2023-04-26T13:18:11;100119.50;;;15.37;32.52
72961;BME280;61141;46.204;19.774;2023-04-26T13:21:14;100112.13;;;16.09;32.04
72961;BME280;61141;46.204;19.774;2023-04-26T13:24:17;100127.72;;;15.88;32.28
72961;BME280;61141;46.204;19.774;2023-04-26T13:27:20;100126.34;;;16.41;31.58
72961;BME280;61141;46.204;19.774;2023-04-26T13:30:24;100123.09;;;15.78;31.74
72961;BME280;61141;46.204;19.774;2023-04-26T13:33:27;100116.78;;;15.78;31.18
72961;BME280;61141;46.204;19.774;2023-04-26T13:36:30;100125.84;;;16.53;31.30
72961;BME280;61141;46.204;19.774;2023-04-26T13:39:34;100113.03;;;17.20;30.72
72961;BME280;61141;46.204;19.774;2023-04-26T13:42:38;100126.47;;;15.56;32.33
72961;BME280;61141;46.204;19.774;2023-04-26T13:45:41;100142.06;;;14.59;32.98
72961;BME280;61141;46.204;19.774;2023-04-26T13:48:44;100140.59;;;14.41;33.68
72961;BME280;61141;46.204;19.774;2023-04-26T13:51:47;100145.22;;;14.61;32.92
72961;BME280;61141;46.204;19.774;2023-04-26T13:54:50;100146.72;;;14.80;32.90
72961;BME280;61141;46.204;19.774;2023-04-26T13:57:55;100139.75;;;16.09;31.94
72961;BME280;61141;46.204;19.774;2023-04-26T14:00:58;100141.66;;;16.49;31.42
72961;BME280;61141;46.204;19.774;2023-04-26T14:04:02;100146.81;;;16.13;30.61
72961;BME280;61141;46.204;19.774;2023-04-26T14:07:06;100144.91;;;15.66;31.59
72961;BME280;61141;46.204;19.774;2023-04-26T14:10:09;100154.94;;;15.49;31.69
72961;BME280;61141;46.204;19.774;2023-04-26T14:13:15;100149.59;;;15.21;32.58
72961;BME280;61141;46.204;19.774;2023-04-26T14:16:18;100153.41;;;15.38;32.66
72961;BME280;61141;46.204;19.774;2023-04-26T14:19:21;100173.66;;;15.20;33.00
72961;BME280;61141;46.204;19.774;2023-04-26T14:22:25;100161.19;;;15.53;32.36
72961;BME280;61141;46.204;19.774;2023-04-26T14:25:28;100157.84;;;15.79;31.82
72961;BME280;61141;46.204;19.774;2023-04-26T14:28:31;100160.22;;;16.15;31.50
72961;BME280;61141;46.204;19.774;2023-04-26T14:31:35;100164.47;;;15.85;31.13
72961;BME280;61141;46.204;19.774;2023-04-26T14:34:38;100170.31;;;15.95;31.96
72961;BME280;61141;46.204;19.774;2023-04-26T14:37:41;100185.31;;;15.46;31.29
72961;BME280;61141;46.204;19.774;2023-04-26T14:40:44;100171.63;;;15.28;31.73
72961;BME280;61141;46.204;19.774;2023-04-26T14:43:47;100173.06;;;15.47;31.95
72961;BME280;61141;46.204;19.774;2023-04-26T14:46:52;100165.47;;;15.61;31.22
72961;BME280;61141;46.204;19.774;2023-04-26T14:49:55;100187.75;;;16.25;32.13
72961;BME280;61141;46.204;19.774;2023-04-26T14:52:59;100183.19;;;15.64;31.87
72961;BME280;61141;46.204;19.774;2023-04-26T14:56:01;100188.31;;;16.10;31.08
72961;BME280;61141;46.204;19.774;2023-04-26T14:59:04;100226.06;;;15.24;31.09
72961;BME280;61141;46.204;19.774;2023-04-26T15:02:08;100195.19;;;15.91;30.18
72961;BME280;61141;46.204;19.774;2023-04-26T15:05:11;100198.62;;;14.96;30.90
72961;BME280;61141;46.204;19.774;2023-04-26T15:08:14;100219.69;;;14.51;30.97
72961;BME280;61141;46.204;19.774;2023-04-26T15:11:18;100230.34;;;14.45;31.50
72961;BME280;61141;46.204;19.774;2023-04-26T15:14:21;100204.44;;;13.83;32.52
72961;BME280;61141;46.204;19.774;2023-04-26T15:17:25;100217.00;;;13.98;32.74
72961;BME280;61141;46.204;19.774;2023-04-26T15:20:28;100211.53;;;13.70;33.24
72961;BME280;61141;46.204;19.774;2023-04-26T15:23:31;100216.22;;;14.33;33.12
72961;BME280;61141;46.204;19.774;2023-04-26T15:26:34;100214.59;;;14.39;32.92
72961;BME280;61141;46.204;19.774;2023-04-26T15:29:37;100217.94;;;14.99;31.86
72961;BME280;61141;46.204;19.774;2023-04-26T15:32:40;100216.03;;;14.86;30.99
72961;BME280;61141;46.204;19.774;2023-04-26T15:35:43;100211.28;;;14.86;31.13
72961;BME280;61141;46.204;19.774;2023-04-26T15:38:45;100222.09;;;15.28;31.25
72961;BME280;61141;46.204;19.774;2023-04-26T15:41:50;100206.66;;;14.62;31.64
72961;BME280;61141;46.204;19.774;2023-04-26T15:44:52;100216.50;;;14.59;32.84
72961;BME280;61141;46.204;19.774;2023-04-26T15:47:55;100209.41;;;14.62;32.58
72961;BME280;61141;46.204;19.774;2023-04-26T15:50:58;100227.22;;;14.15;33.56
72961;BME280;61141;46.204;19.774;2023-04-26T15:54:01;100220.16;;;13.79;34.19
72961;BME280;61141;46.204;19.774;2023-04-26T15:57:04;100233.53;;;13.87;34.99
72961;BME280;61141;46.204;19.774;2023-04-26T16:00:08;100234.31;;;13.38;34.08
72961;BME280;61141;46.204;19.774;2023-04-26T16:03:14;100238.22;;;13.30;35.19
72961;BME280;61141;46.204;19.774;2023-04-26T16:06:18;100242.97;;;13.65;35.23